sensor_id;sensor_type;location;lat;lon;timestamp;temperature;humidity
18906;DHT22;9585;51.018;4.282;2023-08-24T00:09:03;17.80;99.90
18906;DHT22;9585;51.018;4.282;2023-08-24T00:11:32;17.70;99.90
18906;DHT22;9585;51.018;4.282;2023-08-24T00:17:11;17.50;99.90
18906;DHT22;9585;51.018;4.282;2023-08-24T00:19:38;17.40;99.90
18906;DHT22;9585;51.018;4.282;2023-08-24T00:22:06;17.40;99.90
18906;DHT22;9585;51.018;4.282;2023-08-24T00:24:34;17.50;99.90
18906;DHT22;9585;51.018;4.282;2023-08-24T00:27:02;17.60;99.90
18906;DHT22;9585;51.018;4.282;2023-08-24T00:29:29;17.70;99.90
18906;DHT22;9585;51.018;4.282;2023-08-24T00:31:57;17.80;99.90
18906;DHT22;9585;51.018;4.282;2023-08-24T00:34:45;17.80;99.90
18906;DHT22;9585;51.018;4.282;2023-08-24T00:37:15;17.80;99.90
18906;DHT22;9585;51.018;4.282;2023-08-24T00:39:44;17.70;99.90
18906;DHT22;9585;51.018;4.282;2023-08-24T00:42:12;17.80;99.90
18906;DHT22;9585;51.018;4.282;2023-08-24T00:44:41;17.80;99.90
18906;DHT22;9585;51.018;4.282;2023-08-24T00:47:09;17.80;99.90
18906;DHT22;9585;51.018;4.282;2023-08-24T00:49:37;17.70;99.90
18906;DHT22;9585;51.018;4.282;2023-08-24T00:52:05;17.70;99.90
18906;DHT22;9585;51.018;4.282;2023-08-24T00:54:33;17.60;99.90
18906;DHT22;9585;51.018;4.282;2023-08-24T00:57:02;17.50;99.90
18906;DHT22;9585;51.018;4.282;2023-08-24T00:59:30;17.70;99.90
18906;DHT22;9585;51.018;4.282;2023-08-24T01:01:59;17.80;99.90
18906;DHT22;9585;51.018;4.282;2023-08-24T01:04:27;17.90;99.90
18906;DHT22;9585;51.018;4.282;2023-08-24T01:06:55;18.00;99.90
18906;DHT22;9585;51.018;4.282;2023-08-24T01:09:23;18.00;99.90
18906;DHT22;9585;51.018;4.282;2023-08-24T01:11:58;18.10;99.90
18906;DHT22;9585;51.018;4.282;2023-08-24T01:14:41;18.10;99.90
18906;DHT22;9585;51.018;4.282;2023-08-24T01:17:15;18.00;99.90
18906;DHT22;9585;51.018;4.282;2023-08-24T01:19:45;18.00;99.90
18906;DHT22;9585;51.018;4.282;2023-08-24T01:22:23;18.00;99.90
18906;DHT22;9585;51.018;4.282;2023-08-24T01:25:05;18.00;99.90
18906;DHT22;9585;51.018;4.282;2023-08-24T01:27:36;17.90;99.90
18906;DHT22;9585;51.018;4.282;2023-08-24T01:30:05;17.80;99.90
18906;DHT22;9585;51.018;4.282;2023-08-24T01:32:33;17.80;99.90
18906;DHT22;9585;51.018;4.282;2023-08-24T01:35:04;17.80;99.90
18906;DHT22;9585;51.018;4.282;2023-08-24T01:37:33;17.80;99.90
18906;DHT22;9585;51.018;4.282;2023-08-24T01:40:04;17.90;99.90
18906;DHT22;9585;51.018;4.282;2023-08-24T01:42:47;18.00;99.90
18906;DHT22;9585;51.018;4.282;2023-08-24T01:45:17;18.00;99.90
18906;DHT22;9585;51.018;4.282;2023-08-24T01:47:46;18.10;99.90
18906;DHT22;9585;51.018;4.282;2023-08-24T01:50:14;18.10;99.90
18906;DHT22;9585;51.018;4.282;2023-08-24T01:52:42;18.10;99.90
18906;DHT22;9585;51.018;4.282;2023-08-24T01:55:10;18.00;99.90
18906;DHT22;9585;51.018;4.282;2023-08-24T01:57:41;17.70;99.90
18906;DHT22;9585;51.018;4.282;2023-08-24T02:00:09;17.60;99.90
18906;DHT22;9585;51.018;4.282;2023-08-24T02:02:37;17.50;99.90
18906;DHT22;9585;51.018;4.282;2023-08-24T02:05:06;17.50;99.90
18906;DHT22;9585;51.018;4.282;2023-08-24T02:07:35;17.40;99.90
18906;DHT22;9585;51.018;4.282;2023-08-24T02:10:04;17.20;99.90
18906;DHT22;9585;51.018;4.282;2023-08-24T02:12:31;17.10;99.90
18906;DHT22;9585;51.018;4.282;2023-08-24T02:15:01;16.90;99.90
18906;DHT22;9585;51.018;4.282;2023-08-24T02:17:29;16.80;99.90
18906;DHT22;9585;51.018;4.282;2023-08-24T02:19:56;16.80;99.90
18906;DHT22;9585;51.018;4.282;2023-08-24T02:22:24;16.80;99.90
18906;DHT22;9585;51.018;4.282;2023-08-24T02:24:52;16.90;99.90
18906;DHT22;9585;51.018;4.282;2023-08-24T02:27:19;16.80;99.90
18906;DHT22;9585;51.018;4.282;2023-08-24T02:29:47;16.90;99.90
18906;DHT22;9585;51.018;4.282;2023-08-24T02:32:16;17.00;99.90
18906;DHT22;9585;51.018;4.282;2023-08-24T02:34:44;17.00;99.90
18906;DHT22;9585;51.018;4.282;2023-08-24T02:37:12;17.00;99.90
18906;DHT22;9585;51.018;4.282;2023-08-24T02:39:39;16.90;99.90
18906;DHT22;9585;51.018;4.282;2023-08-24T02:42:07;16.80;99.90
18906;DHT22;9585;51.018;4.282;2023-08-24T02:44:34;16.90;99.90
18906;DHT22;9585;51.018;4.282;2023-08-24T02:47:02;16.90;99.90
18906;DHT22;9585;51.018;4.282;2023-08-24T02:49:31;16.90;99.90
18906;DHT22;9585;51.018;4.282;2023-08-24T02:51:59;16.80;99.90
18906;DHT22;9585;51.018;4.282;2023-08-24T02:54:27;16.80;99.90
18906;DHT22;9585;51.018;4.282;2023-08-24T02:56:55;16.90;99.90
18906;DHT22;9585;51.018;4.282;2023-08-24T02:59:23;16.80;99.90
18906;DHT22;9585;51.018;4.282;2023-08-24T03:01:50;16.80;99.90
18906;DHT22;9585;51.018;4.282;2023-08-24T03:04:18;16.80;99.90
18906;DHT22;9585;51.018;4.282;2023-08-24T03:06:48;16.80;99.90
18906;DHT22;9585;51.018;4.282;2023-08-24T03:09:16;16.70;99.90
18906;DHT22;9585;51.018;4.282;2023-08-24T03:11:44;16.60;99.90
18906;DHT22;9585;51.018;4.282;2023-08-24T03:14:12;16.70;99.90
18906;DHT22;9585;51.018;4.282;2023-08-24T03:16:40;16.70;99.90
18906;DHT22;9585;51.018;4.282;2023-08-24T03:19:08;16.70;99.90
18906;DHT22;9585;51.018;4.282;2023-08-24T03:21:37;16.70;99.90
18906;DHT22;9585;51.018;4.282;2023-08-24T03:24:07;16.70;99.90
18906;DHT22;9585;51.018;4.282;2023-08-24T03:26:35;16.70;99.90
18906;DHT22;9585;51.018;4.282;2023-08-24T03:29:03;16.70;99.90
18906;DHT22;9585;51.018;4.282;2023-08-24T03:31:30;16.70;99.90
18906;DHT22;9585;51.018;4.282;2023-08-24T03:33:58;16.70;99.90
18906;DHT22;9585;51.018;4.282;2023-08-24T03:36:25;16.60;99.90
18906;DHT22;9585;51.018;4.282;2023-08-24T03:38:54;16.60;99.90
18906;DHT22;9585;51.018;4.282;2023-08-24T03:41:24;16.50;99.90
18906;DHT22;9585;51.018;4.282;2023-08-24T03:43:51;16.50;99.90
18906;DHT22;9585;51.018;4.282;2023-08-24T03:46:19;16.60;99.90
18906;DHT22;9585;51.018;4.282;2023-08-24T03:48:47;16.60;99.90
18906;DHT22;9585;51.018;4.282;2023-08-24T03:51:14;16.60;99.90
18906;DHT22;9585;51.018;4.282;2023-08-24T03:53:42;16.70;99.90
18906;DHT22;9585;51.018;4.282;2023-08-24T03:56:10;16.70;99.90
18906;DHT22;9585;51.018;4.282;2023-08-24T03:58:39;16.70;99.90
18906;DHT22;9585;51.018;4.282;2023-08-24T04:01:10;16.70;99.90
18906;DHT22;9585;51.018;4.282;2023-08-24T04:03:38;16.60;99.90
18906;DHT22;9585;51.018;4.282;2023-08-24T04:06:05;16.60;99.90
18906;DHT22;9585;51.018;4.282;2023-08-24T04:08:33;16.60;99.90
18906;DHT22;9585;51.018;4.282;2023-08-24T04:11:01;16.60;99.90
18906;DHT22;9585;51.018;4.282;2023-08-24T04:13:29;16.60;99.90
18906;DHT22;9585;51.018;4.282;2023-08-24T04:15:59;16.60;99.90
18906;DHT22;9585;51.018;4.282;2023-08-24T04:18:26;16.50;99.90
18906;DHT22;9585;51.018;4.282;2023-08-24T04:20:53;16.60;99.90
18906;DHT22;9585;51.018;4.282;2023-08-24T04:23:24;16.50;99.90
18906;DHT22;9585;51.018;4.282;2023-08-24T04:25:53;16.50;99.90
18906;DHT22;9585;51.018;4.282;2023-08-24T04:28:21;16.60;99.90
18906;DHT22;9585;51.018;4.282;2023-08-24T04:30:50;16.60;99.90
18906;DHT22;9585;51.018;4.282;2023-08-24T04:33:47;16.60;99.90
18906;DHT22;9585;51.018;4.282;2023-08-24T04:36:15;16.50;99.90
18906;DHT22;9585;51.018;4.282;2023-08-24T04:38:43;16.50;99.90
18906;DHT22;9585;51.018;4.282;2023-08-24T04:41:10;16.60;99.90
18906;DHT22;9585;51.018;4.282;2023-08-24T04:43:38;16.60;99.90
18906;DHT22;9585;51.018;4.282;2023-08-24T04:46:06;16.70;99.90
18906;DHT22;9585;51.018;4.282;2023-08-24T04:48:34;16.70;99.90
18906;DHT22;9585;51.018;4.282;2023-08-24T04:51:03;16.80;99.90
18906;DHT22;9585;51.018;4.282;2023-08-24T04:53:31;16.70;99.90
18906;DHT22;9585;51.018;4.282;2023-08-24T04:55:59;16.60;99.90
18906;DHT22;9585;51.018;4.282;2023-08-24T04:58:26;16.40;99.90
18906;DHT22;9585;51.018;4.282;2023-08-24T05:00:54;16.40;99.90
18906;DHT22;9585;51.018;4.282;2023-08-24T05:06:34;16.50;99.90
18906;DHT22;9585;51.018;4.282;2023-08-24T05:09:02;16.50;99.90
18906;DHT22;9585;51.018;4.282;2023-08-24T05:11:30;16.60;99.90
18906;DHT22;9585;51.018;4.282;2023-08-24T05:13:58;16.70;99.90
18906;DHT22;9585;51.018;4.282;2023-08-24T05:16:25;16.70;99.90
18906;DHT22;9585;51.018;4.282;2023-08-24T05:18:53;16.70;99.90
18906;DHT22;9585;51.018;4.282;2023-08-24T05:21:21;16.80;99.90
18906;DHT22;9585;51.018;4.282;2023-08-24T05:23:50;16.90;99.90
18906;DHT22;9585;51.018;4.282;2023-08-24T05:26:18;16.90;99.90
18906;DHT22;9585;51.018;4.282;2023-08-24T05:28:48;17.00;99.90
18906;DHT22;9585;51.018;4.282;2023-08-24T05:31:16;17.30;99.90
18906;DHT22;9585;51.018;4.282;2023-08-24T05:34:36;17.80;99.90
18906;DHT22;9585;51.018;4.282;2023-08-24T05:37:18;18.10;99.90
18906;DHT22;9585;51.018;4.282;2023-08-24T05:39:47;18.30;99.90
18906;DHT22;9585;51.018;4.282;2023-08-24T05:42:14;18.40;99.90
18906;DHT22;9585;51.018;4.282;2023-08-24T05:44:42;18.50;99.90
18906;DHT22;9585;51.018;4.282;2023-08-24T05:47:09;18.60;99.90
18906;DHT22;9585;51.018;4.282;2023-08-24T05:49:37;19.10;99.90
18906;DHT22;9585;51.018;4.282;2023-08-24T05:52:05;19.80;99.90
18906;DHT22;9585;51.018;4.282;2023-08-24T05:54:32;20.50;99.90
18906;DHT22;9585;51.018;4.282;2023-08-24T05:57:02;21.10;99.90
18906;DHT22;9585;51.018;4.282;2023-08-24T05:59:30;21.70;99.90
18906;DHT22;9585;51.018;4.282;2023-08-24T06:01:58;22.10;99.90
18906;DHT22;9585;51.018;4.282;2023-08-24T06:07:37;23.00;99.90
18906;DHT22;9585;51.018;4.282;2023-08-24T06:10:05;23.80;99.90
18906;DHT22;9585;51.018;4.282;2023-08-24T06:12:35;24.10;99.90
18906;DHT22;9585;51.018;4.282;2023-08-24T06:15:04;24.20;99.90
18906;DHT22;9585;51.018;4.282;2023-08-24T06:17:33;24.30;99.90
18906;DHT22;9585;51.018;4.282;2023-08-24T06:20:02;24.20;99.90
18906;DHT22;9585;51.018;4.282;2023-08-24T06:22:30;24.60;99.90
18906;DHT22;9585;51.018;4.282;2023-08-24T06:24:58;24.60;99.90
18906;DHT22;9585;51.018;4.282;2023-08-24T06:27:26;24.10;99.90
18906;DHT22;9585;51.018;4.282;2023-08-24T06:29:55;24.40;99.90
18906;DHT22;9585;51.018;4.282;2023-08-24T06:32:23;25.50;99.90
18906;DHT22;9585;51.018;4.282;2023-08-24T06:34:51;24.90;99.90
18906;DHT22;9585;51.018;4.282;2023-08-24T06:37:20;24.10;99.90
18906;DHT22;9585;51.018;4.282;2023-08-24T06:39:47;24.10;99.90
18906;DHT22;9585;51.018;4.282;2023-08-24T06:42:15;24.20;99.90
18906;DHT22;9585;51.018;4.282;2023-08-24T06:44:43;23.60;99.90
18906;DHT22;9585;51.018;4.282;2023-08-24T06:47:11;22.80;99.90
18906;DHT22;9585;51.018;4.282;2023-08-24T06:49:39;22.60;99.90
18906;DHT22;9585;51.018;4.282;2023-08-24T06:52:06;22.90;99.90
18906;DHT22;9585;51.018;4.282;2023-08-24T06:54:34;23.30;99.90
18906;DHT22;9585;51.018;4.282;2023-08-24T06:57:02;23.40;99.90
18906;DHT22;9585;51.018;4.282;2023-08-24T06:59:29;23.30;99.90
18906;DHT22;9585;51.018;4.282;2023-08-24T07:01:57;23.50;99.90
18906;DHT22;9585;51.018;4.282;2023-08-24T07:04:27;23.60;99.90
18906;DHT22;9585;51.018;4.282;2023-08-24T07:06:56;23.90;99.90
18906;DHT22;9585;51.018;4.282;2023-08-24T07:09:24;23.90;99.90
18906;DHT22;9585;51.018;4.282;2023-08-24T07:11:53;23.40;99.90
18906;DHT22;9585;51.018;4.282;2023-08-24T07:14:20;23.70;99.90
18906;DHT22;9585;51.018;4.282;2023-08-24T07:16:48;23.70;99.90
18906;DHT22;9585;51.018;4.282;2023-08-24T07:19:15;23.50;99.90
18906;DHT22;9585;51.018;4.282;2023-08-24T07:21:44;23.50;99.90
18906;DHT22;9585;51.018;4.282;2023-08-24T07:24:12;23.20;99.90
18906;DHT22;9585;51.018;4.282;2023-08-24T07:26:40;23.30;99.90
18906;DHT22;9585;51.018;4.282;2023-08-24T07:29:08;23.20;99.90
18906;DHT22;9585;51.018;4.282;2023-08-24T07:31:37;22.90;99.90
18906;DHT22;9585;51.018;4.282;2023-08-24T07:34:04;22.70;99.90
18906;DHT22;9585;51.018;4.282;2023-08-24T07:36:32;22.50;99.90
18906;DHT22;9585;51.018;4.282;2023-08-24T07:39:00;22.40;99.90
18906;DHT22;9585;51.018;4.282;2023-08-24T07:41:28;22.40;99.90
18906;DHT22;9585;51.018;4.282;2023-08-24T07:43:56;22.10;99.90
18906;DHT22;9585;51.018;4.282;2023-08-24T07:46:23;21.90;99.90
18906;DHT22;9585;51.018;4.282;2023-08-24T07:48:51;21.90;99.90
18906;DHT22;9585;51.018;4.282;2023-08-24T07:51:18;21.90;99.90
18906;DHT22;9585;51.018;4.282;2023-08-24T07:53:46;21.90;99.90
18906;DHT22;9585;51.018;4.282;2023-08-24T07:56:16;21.80;99.90
18906;DHT22;9585;51.018;4.282;2023-08-24T07:58:43;21.60;99.90
18906;DHT22;9585;51.018;4.282;2023-08-24T08:01:12;21.70;99.90
18906;DHT22;9585;51.018;4.282;2023-08-24T08:03:39;21.70;99.90
18906;DHT22;9585;51.018;4.282;2023-08-24T08:06:07;21.70;99.90
18906;DHT22;9585;51.018;4.282;2023-08-24T08:08:34;21.50;99.90
18906;DHT22;9585;51.018;4.282;2023-08-24T08:11:02;21.60;99.90
18906;DHT22;9585;51.018;4.282;2023-08-24T08:13:32;21.50;99.90
18906;DHT22;9585;51.018;4.282;2023-08-24T08:16:03;21.50;99.90
18906;DHT22;9585;51.018;4.282;2023-08-24T08:18:31;21.30;99.90
18906;DHT22;9585;51.018;4.282;2023-08-24T08:20:58;21.10;99.90
18906;DHT22;9585;51.018;4.282;2023-08-24T08:23:26;21.20;99.90
18906;DHT22;9585;51.018;4.282;2023-08-24T08:25:53;21.30;99.90
18906;DHT22;9585;51.018;4.282;2023-08-24T08:28:21;21.00;99.90
18906;DHT22;9585;51.018;4.282;2023-08-24T08:30:50;21.00;99.90
18906;DHT22;9585;51.018;4.282;2023-08-24T08:33:17;20.90;99.90
18906;DHT22;9585;51.018;4.282;2023-08-24T08:35:45;20.90;99.90
18906;DHT22;9585;51.018;4.282;2023-08-24T08:38:13;20.90;99.90
18906;DHT22;9585;51.018;4.282;2023-08-24T08:40:40;21.00;99.90
18906;DHT22;9585;51.018;4.282;2023-08-24T08:43:08;21.10;99.90
18906;DHT22;9585;51.018;4.282;2023-08-24T08:45:35;21.10;99.90
18906;DHT22;9585;51.018;4.282;2023-08-24T08:48:06;21.20;99.90
18906;DHT22;9585;51.018;4.282;2023-08-24T08:50:34;21.30;99.90
18906;DHT22;9585;51.018;4.282;2023-08-24T08:53:02;21.40;99.90
18906;DHT22;9585;51.018;4.282;2023-08-24T08:55:31;21.50;99.90
18906;DHT22;9585;51.018;4.282;2023-08-24T08:57:58;21.60;99.90
18906;DHT22;9585;51.018;4.282;2023-08-24T09:00:30;21.70;99.90
18906;DHT22;9585;51.018;4.282;2023-08-24T09:02:59;21.70;99.90
18906;DHT22;9585;51.018;4.282;2023-08-24T09:05:29;21.70;99.90
18906;DHT22;9585;51.018;4.282;2023-08-24T09:07:58;21.90;99.90
18906;DHT22;9585;51.018;4.282;2023-08-24T09:10:28;22.00;99.90
18906;DHT22;9585;51.018;4.282;2023-08-24T09:12:56;22.10;99.90
18906;DHT22;9585;51.018;4.282;2023-08-24T09:15:27;22.20;99.90
18906;DHT22;9585;51.018;4.282;2023-08-24T09:17:55;22.10;99.90
18906;DHT22;9585;51.018;4.282;2023-08-24T09:20:23;22.20;99.90
18906;DHT22;9585;51.018;4.282;2023-08-24T09:22:52;22.20;99.90
18906;DHT22;9585;51.018;4.282;2023-08-24T09:25:22;22.10;99.90
18906;DHT22;9585;51.018;4.282;2023-08-24T09:27:56;22.00;99.90
18906;DHT22;9585;51.018;4.282;2023-08-24T09:30:29;21.90;99.90
18906;DHT22;9585;51.018;4.282;2023-08-24T09:33:01;21.70;99.90
18906;DHT22;9585;51.018;4.282;2023-08-24T09:35:34;21.60;99.90
18906;DHT22;9585;51.018;4.282;2023-08-24T09:38:17;21.40;99.90
18906;DHT22;9585;51.018;4.282;2023-08-24T09:40:46;21.20;99.90
18906;DHT22;9585;51.018;4.282;2023-08-24T09:43:14;20.90;99.90
18906;DHT22;9585;51.018;4.282;2023-08-24T09:45:48;20.90;99.90
18906;DHT22;9585;51.018;4.282;2023-08-24T09:48:16;20.70;99.90
18906;DHT22;9585;51.018;4.282;2023-08-24T09:50:45;20.50;99.90
18906;DHT22;9585;51.018;4.282;2023-08-24T09:53:18;20.40;99.90
18906;DHT22;9585;51.018;4.282;2023-08-24T09:55:51;20.30;99.90
18906;DHT22;9585;51.018;4.282;2023-08-24T09:58:19;20.20;99.90
18906;DHT22;9585;51.018;4.282;2023-08-24T10:00:47;20.20;99.90
18906;DHT22;9585;51.018;4.282;2023-08-24T10:03:18;20.10;99.90
18906;DHT22;9585;51.018;4.282;2023-08-24T10:05:51;20.10;99.90
18906;DHT22;9585;51.018;4.282;2023-08-24T10:08:24;20.10;99.90
18906;DHT22;9585;51.018;4.282;2023-08-24T10:10:55;20.20;99.90
18906;DHT22;9585;51.018;4.282;2023-08-24T10:13:30;20.10;99.90
18906;DHT22;9585;51.018;4.282;2023-08-24T10:15:59;20.10;99.90
18906;DHT22;9585;51.018;4.282;2023-08-24T10:18:29;20.00;99.90
18906;DHT22;9585;51.018;4.282;2023-08-24T10:21:00;20.00;99.90
18906;DHT22;9585;51.018;4.282;2023-08-24T10:23:29;19.90;99.90
18906;DHT22;9585;51.018;4.282;2023-08-24T10:25:57;19.80;99.90
18906;DHT22;9585;51.018;4.282;2023-08-24T10:28:27;19.60;99.90
18906;DHT22;9585;51.018;4.282;2023-08-24T10:30:57;19.60;99.90
18906;DHT22;9585;51.018;4.282;2023-08-24T10:33:25;19.50;99.90
18906;DHT22;9585;51.018;4.282;2023-08-24T10:35:53;19.40;99.90
18906;DHT22;9585;51.018;4.282;2023-08-24T10:38:30;19.40;99.90
18906;DHT22;9585;51.018;4.282;2023-08-24T10:41:02;19.40;99.90
18906;DHT22;9585;51.018;4.282;2023-08-24T10:43:34;19.30;99.90
18906;DHT22;9585;51.018;4.282;2023-08-24T10:46:02;19.40;99.90
18906;DHT22;9585;51.018;4.282;2023-08-24T10:51:21;19.50;99.90
18906;DHT22;9585;51.018;4.282;2023-08-24T10:53:56;19.50;99.90
18906;DHT22;9585;51.018;4.282;2023-08-24T10:56:36;19.50;99.90
18906;DHT22;9585;51.018;4.282;2023-08-24T10:59:11;19.60;99.90
18906;DHT22;9585;51.018;4.282;2023-08-24T11:01:40;19.90;99.90
18906;DHT22;9585;51.018;4.282;2023-08-24T11:04:08;20.10;99.90
18906;DHT22;9585;51.018;4.282;2023-08-24T11:06:51;20.40;99.90
18906;DHT22;9585;51.018;4.282;2023-08-24T11:09:20;20.70;99.90
18906;DHT22;9585;51.018;4.282;2023-08-24T11:11:58;20.70;99.90
18906;DHT22;9585;51.018;4.282;2023-08-24T11:14:26;20.60;99.90
18906;DHT22;9585;51.018;4.282;2023-08-24T11:16:57;20.80;99.90
18906;DHT22;9585;51.018;4.282;2023-08-24T11:19:25;21.10;99.90
18906;DHT22;9585;51.018;4.282;2023-08-24T11:21:53;21.40;99.90
18906;DHT22;9585;51.018;4.282;2023-08-24T11:24:23;21.50;99.90
18906;DHT22;9585;51.018;4.282;2023-08-24T11:26:51;21.90;99.90
18906;DHT22;9585;51.018;4.282;2023-08-24T11:29:19;22.10;99.90
18906;DHT22;9585;51.018;4.282;2023-08-24T11:31:45;22.20;99.90
18906;DHT22;9585;51.018;4.282;2023-08-24T11:34:15;22.30;99.90
18906;DHT22;9585;51.018;4.282;2023-08-24T11:36:43;22.40;99.90
18906;DHT22;9585;51.018;4.282;2023-08-24T11:39:15;22.50;99.90
18906;DHT22;9585;51.018;4.282;2023-08-24T11:41:56;22.60;99.90
18906;DHT22;9585;51.018;4.282;2023-08-24T11:44:24;22.80;99.90
18906;DHT22;9585;51.018;4.282;2023-08-24T11:46:52;22.90;99.90
18906;DHT22;9585;51.018;4.282;2023-08-24T11:49:19;22.90;99.90
18906;DHT22;9585;51.018;4.282;2023-08-24T11:51:47;22.90;99.90
18906;DHT22;9585;51.018;4.282;2023-08-24T11:54:17;22.80;99.90
18906;DHT22;9585;51.018;4.282;2023-08-24T11:56:48;22.80;99.90
18906;DHT22;9585;51.018;4.282;2023-08-24T11:59:16;22.90;99.90
18906;DHT22;9585;51.018;4.282;2023-08-24T12:01:45;22.90;99.90
18906;DHT22;9585;51.018;4.282;2023-08-24T12:04:12;22.90;99.90
18906;DHT22;9585;51.018;4.282;2023-08-24T12:06:40;22.70;99.90
18906;DHT22;9585;51.018;4.282;2023-08-24T12:09:08;22.50;99.90
18906;DHT22;9585;51.018;4.282;2023-08-24T12:11:36;22.30;99.90
18906;DHT22;9585;51.018;4.282;2023-08-24T12:14:06;22.10;99.90
18906;DHT22;9585;51.018;4.282;2023-08-24T12:16:35;21.90;99.90
18906;DHT22;9585;51.018;4.282;2023-08-24T12:19:07;21.80;99.90
18906;DHT22;9585;51.018;4.282;2023-08-24T12:21:36;21.90;99.90
18906;DHT22;9585;51.018;4.282;2023-08-24T12:24:04;21.70;99.90
18906;DHT22;9585;51.018;4.282;2023-08-24T12:26:32;21.50;99.90
18906;DHT22;9585;51.018;4.282;2023-08-24T12:29:02;21.50;99.90
18906;DHT22;9585;51.018;4.282;2023-08-24T12:31:33;21.50;99.90
18906;DHT22;9585;51.018;4.282;2023-08-24T12:34:02;21.40;99.90
18906;DHT22;9585;51.018;4.282;2023-08-24T12:36:31;21.40;99.90
18906;DHT22;9585;51.018;4.282;2023-08-24T12:39:00;21.20;99.90
18906;DHT22;9585;51.018;4.282;2023-08-24T12:41:29;21.20;99.90
18906;DHT22;9585;51.018;4.282;2023-08-24T12:43:57;21.20;99.90
18906;DHT22;9585;51.018;4.282;2023-08-24T12:46:25;21.20;99.90
18906;DHT22;9585;51.018;4.282;2023-08-24T12:48:55;21.10;99.90
18906;DHT22;9585;51.018;4.282;2023-08-24T12:51:22;21.00;99.90
18906;DHT22;9585;51.018;4.282;2023-08-24T12:53:52;20.90;99.90
18906;DHT22;9585;51.018;4.282;2023-08-24T12:56:21;21.00;99.90
18906;DHT22;9585;51.018;4.282;2023-08-24T12:58:49;21.10;99.90
18906;DHT22;9585;51.018;4.282;2023-08-24T13:01:16;21.20;99.90
18906;DHT22;9585;51.018;4.282;2023-08-24T13:03:44;21.00;99.90
18906;DHT22;9585;51.018;4.282;2023-08-24T13:06:14;20.90;99.90
18906;DHT22;9585;51.018;4.282;2023-08-24T13:08:42;20.90;99.90
18906;DHT22;9585;51.018;4.282;2023-08-24T13:11:10;20.90;99.90
18906;DHT22;9585;51.018;4.282;2023-08-24T13:13:38;20.90;99.90
18906;DHT22;9585;51.018;4.282;2023-08-24T13:16:06;20.80;99.90
18906;DHT22;9585;51.018;4.282;2023-08-24T13:18:33;20.80;99.90
18906;DHT22;9585;51.018;4.282;2023-08-24T13:21:01;21.00;99.90
18906;DHT22;9585;51.018;4.282;2023-08-24T13:23:30;21.10;99.90
18906;DHT22;9585;51.018;4.282;2023-08-24T13:25:59;21.20;99.90
18906;DHT22;9585;51.018;4.282;2023-08-24T13:28:28;21.20;99.90
18906;DHT22;9585;51.018;4.282;2023-08-24T13:30:55;21.30;99.90
18906;DHT22;9585;51.018;4.282;2023-08-24T13:33:22;21.20;99.90
18906;DHT22;9585;51.018;4.282;2023-08-24T13:35:50;21.20;99.90
18906;DHT22;9585;51.018;4.282;2023-08-24T13:38:24;21.30;99.90
18906;DHT22;9585;51.018;4.282;2023-08-24T13:41:08;21.40;99.90
18906;DHT22;9585;51.018;4.282;2023-08-24T13:43:45;21.50;99.90
18906;DHT22;9585;51.018;4.282;2023-08-24T13:46:22;21.30;99.90
18906;DHT22;9585;51.018;4.282;2023-08-24T13:48:51;21.40;99.90
18906;DHT22;9585;51.018;4.282;2023-08-24T13:51:19;21.40;99.90
18906;DHT22;9585;51.018;4.282;2023-08-24T13:53:47;21.40;99.90
18906;DHT22;9585;51.018;4.282;2023-08-24T13:56:17;21.60;99.90
18906;DHT22;9585;51.018;4.282;2023-08-24T13:58:44;21.60;99.90
18906;DHT22;9585;51.018;4.282;2023-08-24T14:01:12;21.70;99.90
18906;DHT22;9585;51.018;4.282;2023-08-24T14:03:39;21.70;99.90
18906;DHT22;9585;51.018;4.282;2023-08-24T14:06:09;21.80;99.90
18906;DHT22;9585;51.018;4.282;2023-08-24T14:08:37;21.80;99.90
18906;DHT22;9585;51.018;4.282;2023-08-24T14:11:05;21.90;99.90
18906;DHT22;9585;51.018;4.282;2023-08-24T14:13:34;22.10;99.90
18906;DHT22;9585;51.018;4.282;2023-08-24T14:16:01;22.10;99.90
18906;DHT22;9585;51.018;4.282;2023-08-24T14:18:29;22.20;99.90
18906;DHT22;9585;51.018;4.282;2023-08-24T14:20:57;22.40;99.90
18906;DHT22;9585;51.018;4.282;2023-08-24T14:23:25;22.40;99.90
18906;DHT22;9585;51.018;4.282;2023-08-24T14:25:52;22.50;99.90
18906;DHT22;9585;51.018;4.282;2023-08-24T14:28:21;22.40;99.90
18906;DHT22;9585;51.018;4.282;2023-08-24T14:30:51;22.30;99.90
18906;DHT22;9585;51.018;4.282;2023-08-24T14:33:19;22.40;99.90
18906;DHT22;9585;51.018;4.282;2023-08-24T14:35:51;22.40;99.90
18906;DHT22;9585;51.018;4.282;2023-08-24T14:38:18;22.40;99.90
18906;DHT22;9585;51.018;4.282;2023-08-24T14:40:46;22.40;99.90
18906;DHT22;9585;51.018;4.282;2023-08-24T14:43:14;22.40;99.90
18906;DHT22;9585;51.018;4.282;2023-08-24T14:45:41;22.60;99.90
18906;DHT22;9585;51.018;4.282;2023-08-24T14:48:13;22.50;99.90
18906;DHT22;9585;51.018;4.282;2023-08-24T14:50:41;22.40;99.90
18906;DHT22;9585;51.018;4.282;2023-08-24T14:53:09;22.30;99.90
18906;DHT22;9585;51.018;4.282;2023-08-24T14:55:38;22.30;99.90
18906;DHT22;9585;51.018;4.282;2023-08-24T14:58:05;22.30;99.90
18906;DHT22;9585;51.018;4.282;2023-08-24T15:00:33;22.20;99.90
18906;DHT22;9585;51.018;4.282;2023-08-24T15:03:01;22.20;99.90
18906;DHT22;9585;51.018;4.282;2023-08-24T15:05:31;22.10;99.90
18906;DHT22;9585;51.018;4.282;2023-08-24T15:08:04;22.30;99.90
18906;DHT22;9585;51.018;4.282;2023-08-24T15:10:32;22.40;99.90
18906;DHT22;9585;51.018;4.282;2023-08-24T15:12:59;22.50;99.90
18906;DHT22;9585;51.018;4.282;2023-08-24T15:15:27;22.60;99.90
18906;DHT22;9585;51.018;4.282;2023-08-24T15:17:54;22.70;99.90
18906;DHT22;9585;51.018;4.282;2023-08-24T15:20:22;22.60;99.90
18906;DHT22;9585;51.018;4.282;2023-08-24T15:22:51;22.70;99.90
18906;DHT22;9585;51.018;4.282;2023-08-24T15:25:21;22.80;99.90
18906;DHT22;9585;51.018;4.282;2023-08-24T15:27:48;22.70;99.90
18906;DHT22;9585;51.018;4.282;2023-08-24T15:30:16;22.70;99.90
18906;DHT22;9585;51.018;4.282;2023-08-24T15:32:44;22.80;99.90
18906;DHT22;9585;51.018;4.282;2023-08-24T15:35:11;22.90;99.90
18906;DHT22;9585;51.018;4.282;2023-08-24T15:37:39;22.80;99.90
18906;DHT22;9585;51.018;4.282;2023-08-24T15:40:10;22.90;99.90
18906;DHT22;9585;51.018;4.282;2023-08-24T15:42:38;23.00;99.90
18906;DHT22;9585;51.018;4.282;2023-08-24T15:45:06;23.10;99.90
18906;DHT22;9585;51.018;4.282;2023-08-24T15:47:34;23.20;99.90
18906;DHT22;9585;51.018;4.282;2023-08-24T15:50:02;23.40;99.90
18906;DHT22;9585;51.018;4.282;2023-08-24T15:52:29;23.50;99.90
18906;DHT22;9585;51.018;4.282;2023-08-24T15:54:57;23.50;99.90
18906;DHT22;9585;51.018;4.282;2023-08-24T15:57:27;23.60;99.90
18906;DHT22;9585;51.018;4.282;2023-08-24T15:59:57;23.60;99.90
18906;DHT22;9585;51.018;4.282;2023-08-24T16:02:25;23.60;99.90
18906;DHT22;9585;51.018;4.282;2023-08-24T16:04:52;23.60;99.90
18906;DHT22;9585;51.018;4.282;2023-08-24T16:07:21;23.60;99.90
18906;DHT22;9585;51.018;4.282;2023-08-24T16:09:49;23.70;99.90
18906;DHT22;9585;51.018;4.282;2023-08-24T16:12:17;23.90;99.90
18906;DHT22;9585;51.018;4.282;2023-08-24T16:14:47;23.90;99.90
18906;DHT22;9585;51.018;4.282;2023-08-24T16:17:14;23.90;99.90